KHVS/HVS METAR and TAF weather

Enter ICAO airport designator
Station Type Date Time Source
KHVS METAR 2020/04/04 10:35 UTC NOAA

KHVS 041035Z AUTO 00000KT 10SM CLR 08/02 A2994 RMK AO2


Station Type Date Time Source
KHVS Decoded METAR 2020/04/04 10:35 UTC NOAA

Station name not available
Apr 04, 2020 - 06:35 AM EDT / 2020.04.04 1035 UTC
Wind: Calm:0
Visibility: 10 mile(s):0
Sky conditions: clear
Temperature: 46 F (8 C)
Dew Point: 35 F (2 C)
Relative Humidity: 65%
Pressure (altimeter): 29.94 in. Hg (1013 hPa)
ob: KHVS 041035Z AUTO 00000KT 10SM CLR 08/02 A2994 RMK AO2
cycle: 10

Station Type Date Time Source
KHVS TAF UTC NOAA

Error!

Example: see airport list